Time;durP1;ratioP1;P1;durP2;ratioP2;P2;SDS_P1;SDS_P2;PMS_P1;PMS_P2;Temp;Humidity;BMP_temperature;BMP_pressure;BME280_temperature;BME280_humidity;BME280_pressure;Samples;Min_cycle;Max_cycle;Signal;HPM_P1;HPM_P2
2024/03/19 00:01:10;;;;;;;13.37;7.77;;;10.00;89.30;;;;;;5051593;28;20466;-72
2024/03/19 00:03:35;;;;;;;12.43;8.10;;;9.90;89.50;;;;;;5053407;28;20434;-70
2024/03/19 00:09:22;;;;;;;13.23;7.63;;;9.90;89.50;;;;;;5051805;28;20204;-71
2024/03/19 00:11:48;;;;;;;10.47;6.80;;;9.80;89.50;;;;;;5050650;28;20459;-73
2024/03/19 00:14:13;;;;;;;12.67;6.23;;;9.80;89.60;;;;;;5049440;28;20203;-71
2024/03/19 00:16:39;;;;;;;12.93;7.70;;;9.70;89.50;;;;;;5054831;28;20219;-71
2024/03/19 00:19:05;;;;;;;18.63;9.10;;;9.80;89.60;;;;;;5054605;28;20196;-72
2024/03/19 00:21:30;;;;;;;16.93;9.07;;;9.90;89.70;;;;;;5047608;28;21071;-74
2024/03/19 00:23:56;;;;;;;15.97;9.30;;;10.00;89.50;;;;;;5048043;28;20193;-73
2024/03/19 00:26:21;;;;;;;17.67;9.10;;;9.90;89.30;;;;;;5052762;28;20191;-70
2024/03/19 00:28:47;;;;;;;19.83;11.57;;;10.00;89.20;;;;;;5048488;28;20657;-72
2024/03/19 00:31:12;;;;;;;17.83;9.90;;;10.00;89.00;;;;;;5043707;28;20201;-72
2024/03/19 00:33:38;;;;;;;20.70;10.07;;;9.90;88.90;;;;;;5051558;28;20180;-72
2024/03/19 00:36:08;;;;;;;20.37;10.00;;;9.80;88.90;;;;;;5048014;28;20211;-72
2024/03/19 00:38:34;;;;;;;18.27;9.40;;;9.90;89.00;;;;;;5051854;28;20187;-72
2024/03/19 00:41:00;;;;;;;17.57;9.33;;;9.80;89.00;;;;;;5046773;28;20447;-70
2024/03/19 00:43:26;;;;;;;16.77;9.93;;;9.90;89.20;;;;;;5050109;28;20195;-69
2024/03/19 00:45:52;;;;;;;16.20;8.60;;;9.80;88.90;;;;;;5047768;28;20521;-71
2024/03/19 00:48:18;;;;;;;20.07;10.37;;;9.60;88.90;;;;;;5048888;28;20497;-73
2024/03/19 00:50:45;;;;;;;17.70;10.00;;;9.50;89.00;;;;;;5049869;28;20426;-69
2024/03/19 00:53:10;;;;;;;18.50;10.60;;;9.40;89.20;;;;;;5048839;28;20184;-71
2024/03/19 00:55:36;;;;;;;15.87;9.20;;;9.50;89.70;;;;;;5049849;28;20431;-71
2024/03/19 00:58:01;;;;;;;17.17;9.77;;;9.50;89.90;;;;;;5058208;28;20231;-72
2024/03/19 01:00:27;;;;;;;16.33;8.13;;;9.50;90.00;;;;;;5051843;28;20267;-73
2024/03/19 01:02:52;;;;;;;15.60;8.23;;;9.50;90.10;;;;;;5038240;28;20203;-71
2024/03/19 01:05:19;;;;;;;15.17;8.70;;;9.50;90.10;;;;;;5049198;28;20263;-73
2024/03/19 01:07:45;;;;;;;17.30;9.33;;;9.60;90.20;;;;;;5049595;28;20680;-71
2024/03/19 01:10:12;;;;;;;14.70;8.63;;;9.70;90.30;;;;;;5050269;28;20419;-72
2024/03/19 01:12:39;;;;;;;13.53;8.40;;;9.70;90.20;;;;;;5048337;28;20541;-71
2024/03/19 01:15:06;;;;;;;15.93;8.93;;;9.70;90.20;;;;;;5045225;28;20430;-72
2024/03/19 01:17:35;;;;;;;14.07;7.63;;;9.80;89.90;;;;;;5051112;28;20439;-72
2024/03/19 01:20:03;;;;;;;16.70;9.50;;;9.70;89.20;;;;;;5046771;28;20419;-72
2024/03/19 01:22:29;;;;;;;14.60;8.30;;;9.60;88.90;;;;;;5044090;28;20569;-72
2024/03/19 01:24:55;;;;;;;17.77;9.40;;;9.50;88.70;;;;;;5048101;28;20427;-72
2024/03/19 01:27:21;;;;;;;15.77;8.27;;;9.40;88.90;;;;;;5050533;28;20600;-72
2024/03/19 01:29:46;;;;;;;19.33;9.20;;;9.30;89.00;;;;;;5051126;28;20415;-72
2024/03/19 01:32:12;;;;;;;17.13;9.43;;;9.30;89.50;;;;;;5044284;28;20978;-70
2024/03/19 01:34:38;;;;;;;15.07;8.70;;;9.20;89.50;;;;;;5047307;28;20207;-71
2024/03/19 01:37:04;;;;;;;17.90;8.80;;;9.20;89.60;;;;;;5050755;28;20326;-72
2024/03/19 01:39:30;;;;;;;13.10;7.77;;;9.20;89.70;;;;;;5050546;28;20477;-72
2024/03/19 01:41:57;;;;;;;12.17;7.77;;;9.10;89.70;;;;;;5045790;28;20486;-71
2024/03/19 01:44:22;;;;;;;13.00;7.40;;;9.20;89.90;;;;;;5044832;28;20189;-71
2024/03/19 01:46:49;;;;;;;13.20;8.17;;;9.10;89.90;;;;;;5050717;28;20552;-71
2024/03/19 01:49:15;;;;;;;12.17;7.07;;;9.10;90.00;;;;;;5050688;28;20260;-71
2024/03/19 01:51:42;;;;;;;11.33;7.20;;;9.00;90.00;;;;;;5043588;28;20479;-70
2024/03/19 01:54:10;;;;;;;9.70;5.93;;;8.90;90.00;;;;;;5050974;28;20517;-71
2024/03/19 01:56:37;;;;;;;11.60;5.93;;;8.80;90.00;;;;;;5047874;28;20814;-74
2024/03/19 01:59:02;;;;;;;13.50;6.50;;;8.90;90.20;;;;;;5050603;28;20835;-70
2024/03/19 02:01:28;;;;;;;19.40;6.27;;;8.80;90.30;;;;;;5053608;28;20443;-74
2024/03/19 02:03:54;;;;;;;8.43;4.73;;;8.70;90.30;;;;;;5050737;28;20181;-71
2024/03/19 02:06:22;;;;;;;10.20;5.33;;;8.60;90.40;;;;;;5052382;28;20409;-73
2024/03/19 02:09:02;;;;;;;10.20;5.57;;;8.60;90.40;;;;;;5048754;28;20231;-72
2024/03/19 02:11:29;;;;;;;15.30;6.00;;;8.60;90.50;;;;;;5042281;28;21035;-72
2024/03/19 02:13:55;;;;;;;10.30;5.80;;;8.60;90.50;;;;;;5050155;28;20506;-71
2024/03/19 02:16:20;;;;;;;13.77;8.13;;;8.70;90.60;;;;;;5052871;28;20518;-71
2024/03/19 02:18:53;;;;;;;13.77;7.30;;;8.80;90.60;;;;;;5050743;28;20193;-70
2024/03/19 02:21:19;;;;;;;14.07;7.57;;;8.70;90.50;;;;;;5048139;28;20240;-70
2024/03/19 02:23:44;;;;;;;13.13;7.27;;;8.60;90.20;;;;;;5050353;28;20466;-69
2024/03/19 02:26:10;;;;;;;11.63;7.10;;;8.60;90.20;;;;;;5051131;28;20274;-71
2024/03/19 02:28:37;;;;;;;11.83;6.50;;;8.50;90.20;;;;;;5049916;28;20220;-71
2024/03/19 02:31:03;;;;;;;12.20;6.80;;;8.40;90.30;;;;;;5045507;28;20752;-70
2024/03/19 02:33:28;;;;;;;11.73;6.13;;;8.40;90.40;;;;;;5051265;28;20973;-70
2024/03/19 02:35:54;;;;;;;12.37;6.40;;;8.20;90.40;;;;;;5051938;28;20415;-71
2024/03/19 02:38:20;;;;;;;9.67;5.17;;;8.20;90.50;;;;;;5048635;28;20549;-72
2024/03/19 02:40:45;;;;;;;6.53;5.23;;;8.20;90.60;;;;;;5048280;28;20208;-72
2024/03/19 02:43:11;;;;;;;11.30;6.53;;;8.20;90.70;;;;;;5047455;28;20192;-70
2024/03/19 02:45:36;;;;;;;10.57;6.40;;;8.20;90.80;;;;;;5049774;28;20176;-70
2024/03/19 02:48:02;;;;;;;10.47;6.03;;;8.20;90.80;;;;;;5049276;28;20216;-72
2024/03/19 02:50:28;;;;;;;10.10;6.20;;;8.30;90.90;;;;;;5050122;28;20268;-72
2024/03/19 02:52:53;;;;;;;12.17;7.13;;;8.40;90.90;;;;;;5047527;28;20188;-70
2024/03/19 02:55:19;;;;;;;11.93;7.40;;;8.30;90.70;;;;;;5049651;28;20181;-70
2024/03/19 02:57:44;;;;;;;12.20;6.40;;;8.20;90.70;;;;;;5053409;28;20196;-71
2024/03/19 03:00:11;;;;;;;13.63;7.67;;;8.10;90.70;;;;;;5063779;28;20187;-68
2024/03/19 03:02:39;;;;;;;13.10;7.33;;;8.30;90.90;;;;;;5050448;28;20208;-71
2024/03/19 03:05:05;;;;;;;13.27;7.27;;;8.30;90.90;;;;;;5053736;28;20431;-70
2024/03/19 03:07:31;;;;;;;15.43;8.00;;;8.30;90.80;;;;;;5052662;28;20912;-70
2024/03/19 03:09:56;;;;;;;16.87;8.80;;;8.20;90.70;;;;;;5049689;28;20500;-71
2024/03/19 03:12:22;;;;;;;12.63;7.53;;;8.10;90.70;;;;;;5039832;28;20482;-72
2024/03/19 03:14:47;;;;;;;13.70;8.87;;;8.10;90.70;;;;;;5045728;28;20203;-69
2024/03/19 03:17:13;;;;;;;12.67;7.40;;;8.20;90.80;;;;;;5050016;28;20650;-69
2024/03/19 03:19:40;;;;;;;13.43;7.67;;;8.20;90.80;;;;;;5049958;28;20211;-72
2024/03/19 03:22:05;;;;;;;14.90;8.47;;;8.20;90.80;;;;;;5041562;28;20668;-71
2024/03/19 03:24:31;;;;;;;15.40;8.50;;;8.20;90.80;;;;;;5046939;28;20442;-71
2024/03/19 03:26:57;;;;;;;14.80;7.87;;;8.30;90.90;;;;;;5053240;28;20226;-73
2024/03/19 03:29:25;;;;;;;13.10;7.30;;;8.30;90.90;;;;;;5048935;28;20711;-71
2024/03/19 03:31:51;;;;;;;12.10;7.27;;;8.30;90.80;;;;;;5047154;28;20478;-71
2024/03/19 03:34:17;;;;;;;11.70;7.67;;;8.30;90.80;;;;;;5049960;28;20439;-72
2024/03/19 03:36:43;;;;;;;14.67;7.40;;;8.30;90.80;;;;;;5055026;28;20439;-71
2024/03/19 03:39:10;;;;;;;12.13;6.80;;;8.30;90.70;;;;;;5057686;28;20819;-71
2024/03/19 03:41:35;;;;;;;13.10;7.67;;;8.30;90.60;;;;;;5048925;28;21956;-72
2024/03/19 03:44:01;;;;;;;14.57;9.10;;;8.30;90.60;;;;;;5050875;28;20439;-71
2024/03/19 03:46:26;;;;;;;9.83;6.70;;;8.30;90.60;;;;;;5051940;28;20641;-71
2024/03/19 03:48:52;;;;;;;14.60;8.60;;;8.30;90.50;;;;;;5053791;28;20262;-73
2024/03/19 03:51:18;;;;;;;15.50;8.40;;;8.20;90.40;;;;;;5048720;28;20210;-70
2024/03/19 03:53:43;;;;;;;12.70;8.73;;;8.10;90.20;;;;;;5051855;28;20218;-71
2024/03/19 03:56:10;;;;;;;12.23;7.40;;;8.00;90.20;;;;;;5053537;28;20186;-70
2024/03/19 03:58:37;;;;;;;13.60;7.80;;;8.00;90.30;;;;;;5051102;28;20223;-71
2024/03/19 04:01:03;;;;;;;12.97;7.93;;;8.00;90.40;;;;;;5049520;28;20455;-72
2024/03/19 04:03:31;;;;;;;12.10;7.27;;;8.00;90.40;;;;;;5050644;28;20436;-73
2024/03/19 04:05:57;;;;;;;11.70;7.77;;;8.00;90.40;;;;;;5047631;28;20965;-72
2024/03/19 04:08:22;;;;;;;13.53;8.20;;;8.00;90.40;;;;;;5053359;28;20513;-72
2024/03/19 04:10:48;;;;;;;13.03;8.17;;;7.90;89.90;;;;;;5052482;28;20204;-71
2024/03/19 04:13:13;;;;;;;11.43;7.20;;;7.70;89.90;;;;;;5049876;28;20641;-71
2024/03/19 04:15:39;;;;;;;12.20;7.57;;;7.60;90.10;;;;;;5053049;28;20184;-72
2024/03/19 04:18:05;;;;;;;16.50;7.50;;;7.60;90.20;;;;;;5054768;28;20287;-69
2024/03/19 04:20:30;;;;;;;14.37;8.27;;;7.60;90.30;;;;;;5052615;28;20191;-69
2024/03/19 04:22:56;;;;;;;20.70;9.43;;;7.50;90.30;;;;;;5045222;28;20193;-71
2024/03/19 04:25:22;;;;;;;17.70;10.17;;;7.50;90.40;;;;;;5046150;28;20315;-70
2024/03/19 04:27:47;;;;;;;12.60;7.60;;;7.40;90.40;;;;;;5057387;28;20213;-72
2024/03/19 04:30:13;;;;;;;12.43;8.10;;;7.30;90.40;;;;;;5057402;28;20180;-71
2024/03/19 04:32:38;;;;;;;14.43;9.17;;;7.30;90.60;;;;;;5046415;28;20755;-71
2024/03/19 04:35:04;;;;;;;13.30;7.43;;;7.30;90.80;;;;;;5052299;28;20183;-72
2024/03/19 04:37:30;;;;;;;12.97;7.70;;;7.30;90.90;;;;;;5051357;28;20308;-70
2024/03/19 04:39:55;;;;;;;11.40;7.00;;;7.30;91.00;;;;;;5056224;28;20234;-71
2024/03/19 04:42:21;;;;;;;15.13;7.80;;;7.40;91.20;;;;;;5049669;28;20208;-72
2024/03/19 04:44:47;;;;;;;15.73;8.80;;;7.40;91.20;;;;;;5055540;28;20210;-70
2024/03/19 04:47:17;;;;;;;9.83;6.80;;;7.40;91.30;;;;;;5058141;28;20220;-71
2024/03/19 04:49:43;;;;;;;13.30;8.07;;;7.40;91.20;;;;;;5053485;28;20223;-69
2024/03/19 04:52:09;;;;;;;10.10;6.80;;;7.40;91.20;;;;;;5050334;28;20461;-72
2024/03/19 04:54:35;;;;;;;11.30;7.43;;;7.40;91.20;;;;;;5055949;28;20419;-72
2024/03/19 04:57:00;;;;;;;11.63;7.00;;;7.40;91.20;;;;;;5053751;28;20462;-71
2024/03/19 04:59:26;;;;;;;9.63;6.63;;;7.40;91.20;;;;;;5049729;28;20176;-69
2024/03/19 05:01:51;;;;;;;14.33;8.20;;;7.40;91.20;;;;;;5050465;28;20220;-72
2024/03/19 05:04:19;;;;;;;10.17;6.47;;;7.40;91.10;;;;;;5057696;28;20177;-70
2024/03/19 05:06:45;;;;;;;15.80;7.23;;;7.40;91.10;;;;;;5060503;28;20185;-72
2024/03/19 05:09:11;;;;;;;12.30;6.30;;;7.30;91.10;;;;;;5055161;28;20488;-72
2024/03/19 05:11:36;;;;;;;12.60;6.90;;;7.20;91.00;;;;;;5050980;28;20290;-71
2024/03/19 05:14:02;;;;;;;8.70;6.37;;;7.10;90.90;;;;;;5052462;28;20956;-69
2024/03/19 05:16:28;;;;;;;11.57;6.10;;;7.10;91.00;;;;;;5052429;28;20463;-71
2024/03/19 05:18:53;;;;;;;12.40;7.23;;;7.10;91.10;;;;;;5050429;28;20195;-70
2024/03/19 05:21:19;;;;;;;14.20;8.20;;;7.20;91.10;;;;;;5049790;28;20196;-71
2024/03/19 05:23:45;;;;;;;12.10;6.50;;;7.30;91.10;;;;;;5051528;28;20184;-69
2024/03/19 05:26:10;;;;;;;11.13;6.73;;;7.30;91.10;;;;;;5051895;28;20263;-71
2024/03/19 05:28:36;;;;;;;12.50;7.30;;;7.20;91.00;;;;;;5051856;28;20521;-70
2024/03/19 05:31:02;;;;;;;14.20;6.63;;;7.30;91.10;;;;;;5047985;28;20478;-72
2024/03/19 05:33:28;;;;;;;14.07;8.00;;;7.30;91.00;;;;;;5047928;28;20184;-70
2024/03/19 05:35:55;;;;;;;13.43;7.80;;;7.20;90.90;;;;;;5051349;28;20201;-71
2024/03/19 05:38:20;;;;;;;20.87;8.40;;;7.20;90.90;;;;;;5051439;28;20193;-72
2024/03/19 05:40:46;;;;;;;17.57;7.40;;;7.30;91.00;;;;;;5046103;28;20489;-72
2024/03/19 05:43:11;;;;;;;13.27;8.70;;;7.30;90.90;;;;;;5046570;28;20182;-70
2024/03/19 05:45:37;;;;;;;16.37;8.77;;;7.30;90.90;;;;;;5049760;28;20242;-71
2024/03/19 05:48:03;;;;;;;14.17;7.20;;;7.20;90.80;;;;;;5050260;28;20279;-70
2024/03/19 05:50:32;;;;;;;11.33;6.77;;;7.20;90.80;;;;;;5051130;28;20245;-71
2024/03/19 05:53:02;;;;;;;13.30;6.90;;;7.10;90.70;;;;;;5044439;28;20439;-72
2024/03/19 05:55:28;;;;;;;13.77;7.13;;;7.10;90.70;;;;;;5050972;28;20413;-72
2024/03/19 05:57:53;;;;;;;16.13;8.80;;;7.20;90.70;;;;;;5051634;28;20793;-71
2024/03/19 06:00:21;;;;;;;16.83;8.63;;;7.10;90.60;;;;;;5051334;28;20650;-71
2024/03/19 06:02:50;;;;;;;15.53;8.97;;;7.10;90.60;;;;;;5046524;28;20200;-71
2024/03/19 06:05:16;;;;;;;14.60;8.27;;;7.10;90.70;;;;;;5044460;28;20528;-71
2024/03/19 06:07:41;;;;;;;11.80;7.77;;;7.10;90.70;;;;;;5051280;28;20518;-71
2024/03/19 06:10:09;;;;;;;14.30;7.63;;;7.20;90.80;;;;;;5051712;28;20262;-71
2024/03/19 06:12:35;;;;;;;12.67;7.40;;;7.20;90.80;;;;;;5046267;28;20205;-73
2024/03/19 06:15:02;;;;;;;12.23;6.70;;;7.30;90.70;;;;;;5049665;28;20529;-72
2024/03/19 06:17:28;;;;;;;12.20;7.30;;;7.40;90.60;;;;;;5046752;28;20191;-73
2024/03/19 06:19:53;;;;;;;19.60;8.07;;;7.40;90.60;;;;;;5054706;28;20423;-72
2024/03/19 06:22:19;;;;;;;12.50;7.73;;;7.40;90.60;;;;;;5053532;28;20246;-71
2024/03/19 06:24:44;;;;;;;15.23;8.10;;;7.50;90.60;;;;;;5053698;28;20299;-71
2024/03/19 06:27:10;;;;;;;13.30;8.20;;;7.50;90.50;;;;;;5051265;28;20223;-71
2024/03/19 06:29:35;;;;;;;17.77;8.07;;;7.50;90.20;;;;;;5047322;28;20219;-73
2024/03/19 06:32:01;;;;;;;13.27;7.50;;;7.50;90.00;;;;;;5045973;28;20228;-71
2024/03/19 06:34:27;;;;;;;13.70;8.13;;;7.60;89.90;;;;;;5051090;28;20200;-73
2024/03/19 06:36:53;;;;;;;15.80;9.37;;;7.60;89.70;;;;;;5050922;28;20212;-72
2024/03/19 06:39:19;;;;;;;14.50;8.83;;;7.60;89.70;;;;;;5052978;28;20180;-73
2024/03/19 06:41:45;;;;;;;12.60;8.13;;;7.60;89.60;;;;;;5047757;28;20512;-74
2024/03/19 06:44:10;;;;;;;10.20;6.97;;;7.60;89.70;;;;;;5051205;28;20423;-70
2024/03/19 06:46:36;;;;;;;13.00;7.70;;;7.70;89.70;;;;;;5050417;28;20222;-70
2024/03/19 06:49:04;;;;;;;16.00;9.07;;;7.70;89.60;;;;;;5044737;28;20185;-70
2024/03/19 06:51:29;;;;;;;14.43;8.10;;;7.80;89.70;;;;;;5043719;28;20513;-72
2024/03/19 06:53:55;;;;;;;11.83;6.93;;;7.90;89.70;;;;;;5050562;28;20450;-71
2024/03/19 06:56:20;;;;;;;14.30;8.57;;;7.90;89.60;;;;;;5048899;28;20661;-70
2024/03/19 06:58:47;;;;;;;14.27;8.83;;;7.90;89.50;;;;;;5045669;28;20181;-72
2024/03/19 07:01:13;;;;;;;13.77;7.67;;;8.00;89.50;;;;;;5044151;28;21160;-72
2024/03/19 07:03:39;;;;;;;13.03;7.93;;;8.00;89.50;;;;;;5049815;28;20427;-71
2024/03/19 07:06:05;;;;;;;13.70;8.33;;;8.10;89.50;;;;;;5047628;28;21057;-70
2024/03/19 07:08:30;;;;;;;14.80;8.33;;;8.20;89.60;;;;;;5047592;28;20486;-72
2024/03/19 07:10:57;;;;;;;13.00;8.00;;;8.20;89.60;;;;;;5044059;28;20635;-72
2024/03/19 07:13:23;;;;;;;10.93;7.50;;;8.30;89.60;;;;;;5049063;28;20267;-72
2024/03/19 07:15:48;;;;;;;15.30;9.60;;;8.40;89.50;;;;;;5048916;28;20513;-70
2024/03/19 07:18:14;;;;;;;12.73;8.50;;;8.50;89.30;;;;;;5048259;28;20474;-72
2024/03/19 07:20:40;;;;;;;13.60;8.97;;;8.60;89.30;;;;;;5047323;28;20238;-71
2024/03/19 07:23:06;;;;;;;11.90;8.17;;;8.60;89.20;;;;;;5046189;28;20246;-70
2024/03/19 07:25:33;;;;;;;11.13;8.03;;;8.70;89.20;;;;;;5051617;28;20448;-72
2024/03/19 07:27:59;;;;;;;11.17;7.67;;;8.90;88.90;;;;;;5050960;28;20466;-73
2024/03/19 07:30:26;;;;;;;15.83;9.13;;;9.10;88.40;;;;;;5052715;28;20509;-70
2024/03/19 07:32:52;;;;;;;9.90;7.17;;;9.30;88.10;;;;;;5043921;28;20866;-73
2024/03/19 07:35:17;;;;;;;16.43;9.13;;;9.40;88.00;;;;;;5047553;28;21000;-73
2024/03/19 07:37:43;;;;;;;12.90;8.60;;;9.60;88.10;;;;;;5041930;28;20436;-72
2024/03/19 07:40:10;;;;;;;14.10;8.93;;;9.60;87.60;;;;;;5045598;28;20231;-72
2024/03/19 07:42:39;;;;;;;11.27;8.07;;;9.80;86.90;;;;;;5042391;28;20228;-71
2024/03/19 07:45:06;;;;;;;14.37;9.10;;;9.90;86.30;;;;;;5048535;28;20442;-70
2024/03/19 07:47:35;;;;;;;14.20;8.77;;;9.90;85.70;;;;;;5048483;28;20499;-70
2024/03/19 07:50:07;;;;;;;12.70;8.93;;;10.10;85.70;;;;;;5048767;28;21254;-73
2024/03/19 07:52:33;;;;;;;11.83;7.63;;;10.30;85.30;;;;;;5044064;28;20450;-71
2024/03/19 07:54:59;;;;;;;17.03;9.57;;;10.30;84.90;;;;;;5048583;28;20423;-70
2024/03/19 07:57:25;;;;;;;14.27;8.13;;;10.40;84.60;;;;;;5044051;28;20461;-70
2024/03/19 07:59:52;;;;;;;14.67;8.47;;;10.60;84.60;;;;;;5044522;28;20201;-72
2024/03/19 08:02:19;;;;;;;13.87;8.63;;;10.80;84.40;;;;;;5042265;28;20216;-72
2024/03/19 08:04:50;;;;;;;16.17;8.57;;;11.00;84.10;;;;;;5047193;28;20460;-73
2024/03/19 08:07:17;;;;;;;15.30;8.43;;;11.10;83.40;;;;;;5047372;28;21109;-72
2024/03/19 08:09:42;;;;;;;17.60;9.07;;;11.20;83.10;;;;;;5044430;28;20418;-73
2024/03/19 08:12:08;;;;;;;11.20;7.63;;;11.30;82.50;;;;;;5042845;28;20455;-72
2024/03/19 08:14:34;;;;;;;10.17;6.70;;;11.50;82.40;;;;;;5052563;28;20923;-73
2024/03/19 08:17:00;;;;;;;11.73;7.90;;;11.60;82.10;;;;;;5053550;28;20271;-72
2024/03/19 08:19:26;;;;;;;9.40;6.97;;;11.80;81.70;;;;;;5054788;28;20181;-73
2024/03/19 08:21:53;;;;;;;11.33;7.60;;;11.60;80.50;;;;;;5043387;28;20846;-71
2024/03/19 08:24:18;;;;;;;14.23;7.90;;;11.60;80.30;;;;;;5051686;28;20821;-72
2024/03/19 08:26:44;;;;;;;11.03;7.27;;;11.60;80.60;;;;;;5050482;28;20445;-70
2024/03/19 08:29:11;;;;;;;14.10;9.63;;;11.50;80.50;;;;;;5055191;28;20196;-71
2024/03/19 08:31:37;;;;;;;17.57;10.00;;;11.20;81.50;;;;;;5052399;28;20284;-72
2024/03/19 08:34:03;;;;;;;17.50;9.93;;;10.90;83.00;;;;;;5055676;28;20427;-70
2024/03/19 08:36:29;;;;;;;15.20;9.70;;;10.90;83.60;;;;;;5053929;28;20419;-70
2024/03/19 08:38:55;;;;;;;21.47;11.10;;;11.10;83.60;;;;;;5052320;28;20188;-73
2024/03/19 08:41:20;;;;;;;14.93;9.93;;;11.30;83.40;;;;;;5046515;28;20817;-71
2024/03/19 08:43:50;;;;;;;22.13;10.70;;;11.60;83.40;;;;;;5050769;28;20722;-71
2024/03/19 08:46:17;;;;;;;16.40;9.50;;;11.80;82.50;;;;;;5050779;28;20191;-72
2024/03/19 08:48:42;;;;;;;14.60;9.10;;;12.00;81.90;;;;;;5051874;28;20525;-71
2024/03/19 08:51:08;;;;;;;16.87;9.97;;;12.30;81.20;;;;;;5044157;28;20463;-73
2024/03/19 08:53:33;;;;;;;16.37;9.27;;;12.40;80.80;;;;;;5051443;28;20188;-73
2024/03/19 08:56:01;;;;;;;15.93;9.93;;;12.50;80.50;;;;;;5051603;28;20386;-71
2024/03/19 08:58:26;;;;;;;15.13;9.37;;;12.70;79.50;;;;;;5045329;28;20185;-70
2024/03/19 09:00:52;;;;;;;12.60;8.53;;;12.60;79.00;;;;;;5048976;28;20481;-69
2024/03/19 09:03:17;;;;;;;17.27;9.03;;;12.40;79.00;;;;;;5046956;28;20189;-72
2024/03/19 09:05:43;;;;;;;17.70;8.47;;;12.50;78.90;;;;;;5052463;28;20193;-72
2024/03/19 09:08:08;;;;;;;14.73;8.83;;;12.80;79.00;;;;;;5051752;28;20216;-71
2024/03/19 09:10:34;;;;;;;17.70;9.47;;;13.20;77.80;;;;;;5050778;28;20187;-71
2024/03/19 09:13:00;;;;;;;15.37;8.30;;;13.20;76.80;;;;;;5049828;28;20271;-72
2024/03/19 09:15:26;;;;;;;13.43;8.40;;;13.30;77.00;;;;;;5051271;28;20590;-71
2024/03/19 09:17:53;;;;;;;11.47;7.90;;;13.50;76.70;;;;;;5051178;28;20263;-72
2024/03/19 09:20:20;;;;;;;13.70;7.80;;;13.50;76.10;;;;;;5051277;28;20967;-72
2024/03/19 09:22:45;;;;;;;15.37;8.60;;;13.50;76.40;;;;;;5048102;28;20492;-73
2024/03/19 09:25:12;;;;;;;15.40;8.43;;;13.60;76.10;;;;;;5051423;28;20928;-72
2024/03/19 09:27:39;;;;;;;11.30;8.67;;;13.70;76.40;;;;;;5043435;28;20232;-72
2024/03/19 09:30:07;;;;;;;14.80;9.23;;;13.70;75.50;;;;;;5045624;28;20415;-72
2024/03/19 09:32:34;;;;;;;15.37;9.70;;;13.10;75.90;;;;;;5047715;28;20871;-71
2024/03/19 09:34:59;;;;;;;10.80;8.53;;;12.90;77.40;;;;;;5050242;28;20609;-72
2024/03/19 09:37:26;;;;;;;13.47;8.47;;;12.90;77.80;;;;;;5050478;28;20506;-72
2024/03/19 09:39:51;;;;;;;15.43;9.83;;;13.20;77.40;;;;;;5050693;28;20192;-72
2024/03/19 09:42:21;;;;;;;15.70;10.07;;;12.90;77.10;;;;;;5049668;28;20481;-71
2024/03/19 09:44:49;;;;;;;12.33;8.77;;;13.00;77.60;;;;;;5053145;28;20185;-70
2024/03/19 09:47:16;;;;;;;13.27;8.60;;;13.00;77.30;;;;;;5055110;28;21178;-71
2024/03/19 09:49:42;;;;;;;16.17;8.50;;;13.10;77.60;;;;;;5045458;28;20443;-71
2024/03/19 09:52:08;;;;;;;11.13;8.23;;;13.10;77.40;;;;;;5046692;28;20453;-70
2024/03/19 09:54:34;;;;;;;11.50;7.80;;;13.10;77.60;;;;;;5051661;28;20418;-72
2024/03/19 09:57:03;;;;;;;17.90;8.80;;;13.30;77.10;;;;;;5051254;28;20453;-70
2024/03/19 09:59:29;;;;;;;13.57;8.20;;;13.50;77.10;;;;;;5051133;28;20470;-73
2024/03/19 10:01:56;;;;;;;11.90;7.53;;;13.40;77.30;;;;;;5049245;28;20486;-72
2024/03/19 10:04:23;;;;;;;14.03;8.47;;;13.60;77.00;;;;;;5051687;28;20245;-73
2024/03/19 10:06:49;;;;;;;13.03;7.90;;;13.70;76.50;;;;;;5053917;28;20439;-69
2024/03/19 10:09:16;;;;;;;11.40;8.40;;;13.60;76.70;;;;;;5051634;28;20423;-72
2024/03/19 10:11:41;;;;;;;10.67;7.17;;;13.70;76.40;;;;;;5043128;28;20467;-69
2024/03/19 10:14:12;;;;;;;10.57;8.00;;;13.70;76.40;;;;;;5052027;28;20507;-72
2024/03/19 10:16:42;;;;;;;12.03;7.53;;;13.60;76.10;;;;;;5054795;28;20423;-72
2024/03/19 10:19:10;;;;;;;12.50;7.80;;;13.30;77.40;;;;;;5047944;28;20440;-70
2024/03/19 10:21:36;;;;;;;11.63;7.53;;;13.50;77.60;;;;;;5046823;28;20458;-73
2024/03/19 10:24:28;;;;;;;9.33;5.90;;;13.50;77.40;;;;;;5050625;28;20907;-70
2024/03/19 10:26:54;;;;;;;11.33;6.87;;;13.70;76.20;;;;;;5043772;28;20212;-70
2024/03/19 10:29:20;;;;;;;10.37;7.07;;;13.80;75.70;;;;;;5050853;28;20467;-71
2024/03/19 10:31:46;;;;;;;9.80;6.60;;;13.90;75.10;;;;;;5052098;28;20462;-71
2024/03/19 10:34:20;;;;;;;10.47;6.53;;;13.80;74.80;;;;;;5056659;28;20238;-70
2024/03/19 10:36:51;;;;;;;10.50;7.17;;;13.90;74.80;;;;;;5052997;28;20437;-71
2024/03/19 10:39:19;;;;;;;11.00;6.37;;;13.90;74.90;;;;;;5053413;28;20447;-72
2024/03/19 10:41:50;;;;;;;9.43;6.33;;;14.10;74.50;;;;;;5047804;28;20943;-72
2024/03/19 10:44:17;;;;;;;8.80;5.70;;;14.20;74.00;;;;;;5050964;28;20443;-71
2024/03/19 10:46:44;;;;;;;7.63;5.47;;;14.20;73.70;;;;;;5052379;28;20512;-73
2024/03/19 10:49:23;;;;;;;8.63;5.67;;;14.40;73.60;;;;;;5052218;28;20447;-72
2024/03/19 10:51:54;;;;;;;10.40;5.87;;;14.90;73.50;;;;;;5044140;28;20981;-72
2024/03/19 10:54:22;;;;;;;9.03;6.27;;;15.20;70.40;;;;;;5050572;28;20513;-70
2024/03/19 10:56:49;;;;;;;9.47;5.90;;;14.70;71.00;;;;;;5053776;28;20430;-72
2024/03/19 10:59:15;;;;;;;10.70;5.57;;;15.20;70.40;;;;;;5056546;28;20421;-73
2024/03/19 11:01:48;;;;;;;7.27;5.23;;;15.50;69.40;;;;;;5051162;28;20471;-71
2024/03/19 11:04:14;;;;;;;8.80;5.27;;;15.90;67.90;;;;;;5050215;28;20418;-70
2024/03/19 11:06:41;;;;;;;7.40;4.20;;;16.30;66.40;;;;;;5051208;28;20446;-72
2024/03/19 11:09:19;;;;;;;5.57;4.40;;;16.60;66.00;;;;;;5054177;28;20465;-72
2024/03/19 11:11:49;;;;;;;8.77;4.87;;;16.60;64.70;;;;;;5043984;28;21285;-71
2024/03/19 11:14:17;;;;;;;7.73;5.17;;;16.40;64.50;;;;;;5058810;28;20439;-71
2024/03/19 11:16:45;;;;;;;5.73;4.13;;;16.50;65.60;;;;;;5050479;28;20504;-71
2024/03/19 11:19:26;;;;;;;12.87;5.50;;;17.00;64.10;;;;;;5049340;28;20438;-72
2024/03/19 11:21:53;;;;;;;8.73;4.30;;;16.30;64.10;;;;;;5043302;28;20474;-72
2024/03/19 11:24:28;;;;;;;7.63;4.27;;;16.40;64.20;;;;;;5051084;28;20471;-70
2024/03/19 11:26:58;;;;;;;5.90;4.63;;;16.60;64.50;;;;;;5047430;28;20970;-72
2024/03/19 11:29:34;;;;;;;8.50;4.60;;;16.50;64.40;;;;;;5046874;28;20526;-72
2024/03/19 11:32:00;;;;;;;6.83;4.23;;;16.60;64.50;;;;;;5042325;28;20546;-72
2024/03/19 11:34:27;;;;;;;6.70;4.20;;;16.70;63.40;;;;;;5048212;28;20450;-71
2024/03/19 11:36:54;;;;;;;5.83;4.03;;;17.00;63.40;;;;;;5049588;28;20429;-72
2024/03/19 11:39:20;;;;;;;7.07;3.67;;;17.30;63.10;;;;;;5047083;28;20843;-73
2024/03/19 11:41:46;;;;;;;5.23;3.50;;;17.60;62.30;;;;;;5045614;28;20475;-73
2024/03/19 11:44:19;;;;;;;5.47;3.57;;;17.80;62.20;;;;;;5046674;28;20905;-71
2024/03/19 11:46:47;;;;;;;5.53;3.60;;;16.70;63.40;;;;;;5053706;28;20517;-72
2024/03/19 11:49:27;;;;;;;6.77;3.10;;;16.60;63.20;;;;;;5053961;28;20459;-71
2024/03/19 11:52:00;;;;;;;4.87;3.50;;;15.80;64.80;;;;;;5049723;28;20470;-71
2024/03/19 11:54:26;;;;;;;6.67;3.47;;;16.50;64.70;;;;;;5053043;28;20451;-70
2024/03/19 11:56:54;;;;;;;6.20;3.63;;;16.80;63.50;;;;;;5052653;28;20855;-71
2024/03/19 11:59:24;;;;;;;6.10;3.50;;;17.20;64.10;;;;;;5050856;28;20460;-71
2024/03/19 12:01:51;;;;;;;4.50;3.23;;;17.50;62.00;;;;;;5049227;28;20992;-72
2024/03/19 12:04:18;;;;;;;5.17;3.27;;;17.50;62.00;;;;;;5051426;28;20463;-72
2024/03/19 12:06:48;;;;;;;6.00;3.67;;;17.70;62.60;;;;;;5049437;28;20505;-73
2024/03/19 12:09:16;;;;;;;5.13;3.33;;;18.20;61.70;;;;;;5051591;28;20966;-73
2024/03/19 12:11:43;;;;;;;4.97;3.50;;;18.60;60.90;;;;;;5043286;28;20533;-72
2024/03/19 12:14:13;;;;;;;4.50;3.27;;;18.70;60.60;;;;;;5052814;28;20421;-74
2024/03/19 12:16:39;;;;;;;6.23;3.40;;;18.80;60.10;;;;;;5054244;28;20800;-71
2024/03/19 12:19:05;;;;;;;6.10;4.43;;;19.00;59.60;;;;;;5041229;28;20774;-73
2024/03/19 12:21:37;;;;;;;5.00;3.77;;;19.00;59.70;;;;;;5045464;28;20456;-70
2024/03/19 12:24:04;;;;;;;4.53;3.80;;;18.10;60.00;;;;;;5052943;28;20188;-71
2024/03/19 12:26:29;;;;;;;7.50;3.93;;;16.90;63.40;;;;;;5052925;28;20956;-73
2024/03/19 12:28:55;;;;;;;6.47;4.17;;;16.80;63.80;;;;;;5050251;28;20473;-73
2024/03/19 12:31:24;;;;;;;4.50;3.47;;;16.50;64.40;;;;;;5046508;28;20209;-74
2024/03/19 12:34:16;;;;;;;5.40;3.47;;;16.70;63.80;;;;;;5051422;28;20187;-73
2024/03/19 12:36:38;;;;;;;4.90;3.30;;;16.90;64.20;;;;;;5052517;28;20923;-71
2024/03/19 12:39:04;;;;;;;4.97;3.17;;;17.50;63.70;;;;;;5052278;28;20477;-74
2024/03/19 12:41:29;;;;;;;6.03;4.10;;;18.00;63.10;;;;;;5048122;28;20198;-74
2024/03/19 12:43:55;;;;;;;5.70;4.10;;;17.90;61.70;;;;;;5053162;28;20269;-71
2024/03/19 12:46:20;;;;;;;6.30;4.10;;;16.90;63.80;;;;;;5054103;28;20200;-72